Time;durP1;ratioP1;P1;durP2;ratioP2;P2;SDS_P1;SDS_P2;PMS_P1;PMS_P2;Temp;Humidity;BMP_temperature;BMP_pressure;BME280_temperature;BME280_humidity;BME280_pressure;Samples;Min_cycle;Max_cycle;Signal;HPM_P1;HPM_P2
2022/10/30 00:00:24;;;;;;;31.00;17.98;;;13.90;99.90;;;;;;5155817;27;20085;-63
2022/10/30 00:02:50;;;;;;;;;;;13.50;99.90;;;;;;5137475;27;20060;-63
2022/10/30 00:05:16;;;;;;;29.85;17.60;;;13.60;99.90;;;;;;5155757;27;19922;-64
2022/10/30 00:07:42;;;;;;;39.15;18.25;;;13.70;99.90;;;;;;5154972;27;20046;-64
2022/10/30 00:10:08;;;;;;;33.40;18.08;;;13.50;99.90;;;;;;5155626;27;20042;-63
2022/10/30 00:12:34;;;;;;;35.22;17.60;;;13.60;99.90;;;;;;5155494;27;20038;-63
2022/10/30 00:15:00;;;;;;;32.22;16.85;;;13.60;99.90;;;;;;5155515;27;20042;-63
2022/10/30 00:17:25;;;;;;;34.40;18.08;;;13.30;99.90;;;;;;5155220;27;20068;-63
2022/10/30 00:19:51;;;;;;;41.40;18.17;;;13.30;99.90;;;;;;5155456;27;20051;-64
2022/10/30 00:22:17;;;;;;;41.53;17.63;;;13.40;99.90;;;;;;5155401;27;20043;-64
2022/10/30 00:24:42;;;;;;;;;;;13.40;99.90;;;;;;5155805;27;20368;-63
2022/10/30 00:27:08;;;;;;;35.83;18.13;;;13.10;99.90;;;;;;5155242;27;19922;-63
2022/10/30 00:29:34;;;;;;;43.70;19.83;;;13.50;99.90;;;;;;5155291;27;20091;-63
2022/10/30 00:31:59;;;;;;;40.40;19.20;;;13.10;99.90;;;;;;5154932;27;20042;-63
2022/10/30 00:34:25;;;;;;;;;;;13.30;99.90;;;;;;5155324;27;20073;-63
2022/10/30 00:36:51;;;;;;;42.60;19.80;;;13.30;99.90;;;;;;5154791;27;19922;-64
2022/10/30 00:39:16;;;;;;;35.80;18.73;;;13.30;99.90;;;;;;5155077;27;20043;-64
2022/10/30 00:41:42;;;;;;;;;;;13.70;99.90;;;;;;5155455;27;20125;-63
2022/10/30 00:44:39;;;;;;;41.70;18.38;;;13.40;99.90;;;;;;5155009;27;19919;-63
2022/10/30 00:47:33;;;;;;;41.83;18.48;;;13.10;99.90;;;;;;5154969;27;20130;-63
2022/10/30 00:50:06;;;;;;;39.08;18.48;;;13.30;99.90;;;;;;5150897;27;20055;-63
2022/10/30 00:52:39;;;;;;;36.30;18.85;;;13.10;99.90;;;;;;5154830;27;20493;-64
2022/10/30 00:55:18;;;;;;;38.38;19.15;;;13.30;99.90;;;;;;5154890;27;20047;-63
2022/10/30 00:57:44;;;;;;;39.75;18.13;;;13.30;99.90;;;;;;5154839;27;20046;-63
2022/10/30 01:00:11;;;;;;;35.80;20.08;;;13.20;99.90;;;;;;5154806;27;20085;-63
2022/10/30 01:02:40;;;;;;;44.00;19.95;;;12.90;99.90;;;;;;5154414;27;20058;-63
2022/10/30 01:05:06;;;;;;;41.72;19.08;;;13.40;99.90;;;;;;5154660;27;20450;-63
2022/10/30 01:07:31;;;;;;;;;;;13.10;99.90;;;;;;5155072;27;20047;-64
2022/10/30 01:09:57;;;;;;;34.55;18.48;;;13.50;99.90;;;;;;5154610;27;19923;-63
2022/10/30 01:12:23;;;;;;;35.80;17.92;;;13.00;99.90;;;;;;5136018;27;20078;-63
2022/10/30 01:14:54;;;;;;;35.03;18.65;;;13.20;99.90;;;;;;5135836;27;20080;-63
2022/10/30 01:17:58;;;;;;;30.77;18.15;;;13.40;99.90;;;;;;5154272;27;20078;-63
2022/10/30 01:20:54;;;;;;;31.00;17.65;;;13.10;99.90;;;;;;5154507;27;20047;-63
2022/10/30 01:23:36;;;;;;;36.50;18.40;;;12.90;99.90;;;;;;5154482;27;20130;-63
2022/10/30 01:26:30;;;;;;;38.15;18.35;;;13.10;99.90;;;;;;5154494;27;20383;-63
2022/10/30 01:29:10;;;;;;;34.75;17.85;;;12.70;99.90;;;;;;5154363;27;20038;-63
2022/10/30 01:31:38;;;;;;;51.97;19.17;;;13.00;99.90;;;;;;5154147;27;20042;-63
2022/10/30 01:34:17;;;;;;;34.80;17.27;;;13.50;99.90;;;;;;5154296;27;20057;-63
2022/10/30 01:37:20;;;;;;;38.10;18.80;;;12.80;99.90;;;;;;5154374;27;20061;-63
2022/10/30 01:39:46;;;;;;;36.72;18.30;;;13.00;99.90;;;;;;5049892;28;20083;-63
2022/10/30 01:42:49;;;;;;;35.13;17.98;;;12.90;99.90;;;;;;5131985;27;20137;-65
2022/10/30 01:45:20;;;;;;;38.17;18.75;;;13.30;99.90;;;;;;5153982;27;20089;-63
2022/10/30 01:47:56;;;;;;;32.22;17.83;;;12.90;99.90;;;;;;5154205;27;20046;-63
2022/10/30 01:50:28;;;;;;;40.00;17.92;;;12.90;99.90;;;;;;5154275;27;20095;-63
2022/10/30 01:53:15;;;;;;;36.22;18.75;;;12.90;99.90;;;;;;5154140;27;20049;-63
2022/10/30 01:55:49;;;;;;;40.00;18.75;;;13.00;99.90;;;;;;5154262;27;20125;-63
2022/10/30 01:58:23;;;;;;;32.97;17.33;;;13.00;99.90;;;;;;5154184;27;20046;-63
2022/10/30 02:00:57;;;;;;;38.20;19.38;;;12.70;99.90;;;;;;5154142;27;20042;-63
2022/10/30 02:03:24;;;;;;;43.85;18.85;;;13.10;99.90;;;;;;5154182;27;20043;-63
2022/10/30 02:05:52;;;;;;;37.15;18.23;;;12.80;99.90;;;;;;5154064;27;20053;-63
2022/10/30 02:08:19;;;;;;;30.88;18.92;;;13.00;99.90;;;;;;5154067;27;20081;-63
2022/10/30 02:10:47;;;;;;;37.05;18.33;;;12.70;99.90;;;;;;5154033;27;20053;-63
2022/10/30 02:13:13;;;;;;;38.13;18.85;;;13.20;99.90;;;;;;5153638;27;20122;-64
2022/10/30 02:15:41;;;;;;;35.92;18.65;;;12.70;99.90;;;;;;5153973;27;20079;-63
2022/10/30 02:18:08;;;;;;;37.05;19.40;;;13.00;99.90;;;;;;5153923;27;20175;-63
2022/10/30 02:20:33;;;;;;;40.42;18.63;;;12.90;99.90;;;;;;5153910;27;20047;-63
2022/10/30 02:23:00;;;;;;;37.50;18.42;;;12.80;99.90;;;;;;5153877;27;20047;-63
2022/10/30 02:25:25;;;;;;;34.67;18.23;;;12.80;99.90;;;;;;5154158;27;20389;-63
2022/10/30 02:27:51;;;;;;;32.78;18.80;;;12.80;99.90;;;;;;5153546;27;20038;-63
2022/10/30 02:30:17;;;;;;;40.95;19.30;;;12.70;99.90;;;;;;5154402;27;20464;-63
2022/10/30 02:32:42;;;;;;;38.83;18.90;;;12.40;99.90;;;;;;5157499;27;20086;-64
2022/10/30 02:35:08;;;;;;;32.22;18.42;;;12.50;99.90;;;;;;5157397;27;20058;-63
2022/10/30 02:37:38;;;;;;;41.22;19.58;;;12.60;99.90;;;;;;5157440;27;20057;-63
2022/10/30 02:40:07;;;;;;;40.75;18.77;;;12.70;99.90;;;;;;5157382;27;20078;-63
2022/10/30 02:42:33;;;;;;;41.55;19.80;;;12.70;99.90;;;;;;5157059;27;20039;-63
2022/10/30 02:44:59;;;;;;;38.40;20.85;;;12.30;99.90;;;;;;5157347;27;20046;-63
2022/10/30 02:47:24;;;;;;;40.17;20.63;;;12.70;99.90;;;;;;5157282;27;20130;-63
2022/10/30 02:49:50;;;;;;;44.08;20.00;;;12.40;99.90;;;;;;5157241;27;20042;-63
2022/10/30 02:52:16;;;;;;;41.17;18.88;;;12.70;99.90;;;;;;5157120;27;20501;-63
2022/10/30 02:54:41;;;;;;;39.08;20.33;;;12.60;99.90;;;;;;5157147;27;20034;-63
2022/10/30 02:57:08;;;;;;;46.65;19.60;;;12.40;99.90;;;;;;5156841;27;20065;-63
2022/10/30 02:59:34;;;;;;;38.72;19.15;;;12.60;99.90;;;;;;5157094;27;20043;-63
2022/10/30 03:02:00;;;;;;;37.92;19.48;;;12.50;99.90;;;;;;5157000;27;20042;-63
2022/10/30 03:04:25;;;;;;;46.58;19.58;;;12.30;99.90;;;;;;5156992;27;20513;-62
2022/10/30 03:06:51;;;;;;;42.78;19.00;;;12.40;99.90;;;;;;5156883;27;20107;-63
2022/10/30 03:09:16;;;;;;;38.00;19.48;;;12.20;99.90;;;;;;5156837;27;20039;-62
2022/10/30 03:11:43;;;;;;;44.83;19.85;;;12.30;99.90;;;;;;5156571;27;20733;-62
2022/10/30 03:14:09;;;;;;;35.03;19.67;;;12.30;99.90;;;;;;5156645;27;20454;-63
2022/10/30 03:16:36;;;;;;;43.33;19.17;;;12.10;99.90;;;;;;5156779;27;20099;-62
2022/10/30 03:19:02;;;;;;;35.35;18.58;;;12.30;99.90;;;;;;5156681;27;20042;-62
2022/10/30 03:21:28;;;;;;;38.50;19.77;;;12.40;99.90;;;;;;5156627;27;20082;-63
2022/10/30 03:23:54;;;;;;;39.67;20.45;;;12.40;99.90;;;;;;5156559;27;20056;-63
2022/10/30 03:26:20;;;;;;;41.88;19.45;;;12.10;99.90;;;;;;5137779;27;20471;-62
2022/10/30 03:28:46;;;;;;;37.83;19.15;;;12.50;99.90;;;;;;5156517;27;20066;-62
2022/10/30 03:31:16;;;;;;;34.53;19.38;;;12.30;99.90;;;;;;5156448;27;20079;-62
2022/10/30 03:33:42;;;;;;;33.55;19.45;;;12.20;99.90;;;;;;5137854;27;20077;-63
2022/10/30 03:36:10;;;;;;;35.95;18.35;;;12.20;99.90;;;;;;5156360;27;20740;-62
2022/10/30 03:38:36;;;;;;;34.38;19.73;;;11.90;99.90;;;;;;5156248;27;20086;-62
2022/10/30 03:41:02;;;;;;;42.85;19.77;;;12.30;99.90;;;;;;5155690;27;20493;-63
2022/10/30 03:43:28;;;;;;;;;;;12.00;99.90;;;;;;5155519;27;20526;-62
2022/10/30 03:45:55;;;;;;;35.65;18.42;;;11.80;99.90;;;;;;5156134;27;19927;-64
2022/10/30 03:48:23;;;;;;;44.05;18.77;;;12.40;99.90;;;;;;5137786;27;20453;-62
2022/10/30 03:50:51;;;;;;;37.63;19.63;;;12.30;99.90;;;;;;5156029;27;20046;-65
2022/10/30 03:53:16;;;;;;;36.90;20.63;;;11.80;99.90;;;;;;5155898;27;20039;-62
2022/10/30 03:55:42;;;;;;;45.75;20.40;;;12.10;99.90;;;;;;5155711;27;20047;-62
2022/10/30 03:58:07;;;;;;;44.17;20.48;;;12.40;99.90;;;;;;5155592;27;20046;-63
2022/10/30 04:00:35;;;;;;;42.97;19.95;;;12.60;99.90;;;;;;5155855;27;20038;-63
2022/10/30 04:03:01;;;;;;;43.00;19.83;;;12.00;99.90;;;;;;5155848;27;20443;-63
2022/10/30 04:05:27;;;;;;;40.58;20.17;;;11.90;99.90;;;;;;5155738;27;20038;-63
2022/10/30 04:08:01;;;;;;;42.88;21.50;;;12.30;99.90;;;;;;5155612;27;20047;-62
2022/10/30 04:10:27;;;;;;;47.58;21.65;;;12.50;99.90;;;;;;5155371;27;20066;-62
2022/10/30 04:13:00;;;;;;;44.20;21.30;;;12.20;99.90;;;;;;5155539;27;20038;-62
2022/10/30 04:15:25;;;;;;;48.95;21.33;;;12.30;99.90;;;;;;5155630;27;20049;-63
2022/10/30 04:17:51;;;;;;;44.55;22.85;;;12.40;99.90;;;;;;5155493;27;20467;-62
2022/10/30 04:20:18;;;;;;;52.25;23.85;;;12.40;99.90;;;;;;5155510;27;20459;-63
2022/10/30 04:22:44;;;;;;;46.95;22.20;;;12.40;99.90;;;;;;5137117;27;20471;-63
2022/10/30 04:25:10;;;;;;;48.53;22.30;;;12.60;99.90;;;;;;5154754;27;20594;-63
2022/10/30 04:27:40;;;;;;;55.83;22.02;;;12.00;99.90;;;;;;5155136;27;20121;-62
2022/10/30 04:30:07;;;;;;;44.10;21.77;;;12.50;99.90;;;;;;5155246;27;20054;-63
2022/10/30 04:32:33;;;;;;;46.45;22.38;;;12.60;99.90;;;;;;5155086;27;20046;-63
2022/10/30 04:34:58;;;;;;;41.63;20.95;;;12.30;99.90;;;;;;5154850;27;20189;-62
2022/10/30 04:37:24;;;;;;;45.63;22.13;;;12.40;99.90;;;;;;5155472;27;20428;-65
2022/10/30 04:39:50;;;;;;;47.45;24.38;;;12.70;99.90;;;;;;5154811;27;20129;-63
2022/10/30 04:42:16;;;;;;;54.38;22.63;;;12.20;99.90;;;;;;5154690;27;20478;-63
2022/10/30 04:44:42;;;;;;;46.58;22.05;;;12.40;99.90;;;;;;5155028;27;20121;-63
2022/10/30 04:47:07;;;;;;;50.15;23.38;;;12.10;99.90;;;;;;5154979;27;20320;-63
2022/10/30 04:49:33;;;;;;;52.72;23.08;;;12.40;99.90;;;;;;5154539;27;20474;-62
2022/10/30 04:51:58;;;;;;;46.92;22.98;;;12.30;99.90;;;;;;5154870;27;20115;-62
2022/10/30 04:54:24;;;;;;;51.53;22.73;;;12.10;99.90;;;;;;5154180;27;20039;-63
2022/10/30 04:56:50;;;;;;;42.78;22.02;;;12.10;99.90;;;;;;5154820;27;20042;-63
2022/10/30 04:59:15;;;;;;;47.67;23.42;;;12.10;99.90;;;;;;5154770;27;20091;-63
2022/10/30 05:01:41;;;;;;;51.30;22.30;;;12.70;99.90;;;;;;5154719;27;20098;-62
2022/10/30 05:04:07;;;;;;;51.20;23.92;;;12.00;99.90;;;;;;5154663;27;20514;-63
2022/10/30 05:06:32;;;;;;;47.25;23.08;;;12.70;99.90;;;;;;5154635;27;20046;-63
2022/10/30 05:08:58;;;;;;;55.47;23.42;;;12.60;99.90;;;;;;5154348;27;20046;-63
2022/10/30 05:11:24;;;;;;;54.25;22.67;;;12.30;99.90;;;;;;5154895;27;20035;-63
2022/10/30 05:13:50;;;;;;;52.75;22.85;;;12.30;99.90;;;;;;5154513;27;20051;-64
2022/10/30 05:16:15;;;;;;;49.65;22.33;;;12.10;99.90;;;;;;5154523;27;20505;-63
2022/10/30 05:18:41;;;;;;;43.08;21.25;;;12.40;99.90;;;;;;5154486;27;20089;-62
2022/10/30 05:21:07;;;;;;;48.67;22.30;;;12.10;99.90;;;;;;5154493;27;20077;-63
2022/10/30 05:23:32;;;;;;;45.67;21.67;;;12.70;99.90;;;;;;5154486;27;20035;-63
2022/10/30 05:26:01;;;;;;;42.85;21.30;;;12.10;99.90;;;;;;5154454;27;20082;-62
2022/10/30 05:28:27;;;;;;;47.25;21.98;;;12.00;99.90;;;;;;5154358;27;20133;-62
2022/10/30 05:30:53;;;;;;;43.72;22.15;;;12.50;99.90;;;;;;5154412;27;20117;-63
2022/10/30 05:33:19;;;;;;;36.20;21.70;;;11.90;99.90;;;;;;5154260;27;20034;-62
2022/10/30 05:35:44;;;;;;;47.55;22.05;;;12.60;99.90;;;;;;5154366;27;20486;-62
2022/10/30 05:38:11;;;;;;;43.88;21.40;;;12.10;99.90;;;;;;5154092;27;20039;-63
2022/10/30 05:40:37;;;;;;;43.22;22.58;;;12.10;99.90;;;;;;5154305;27;20051;-63
2022/10/30 05:43:04;;;;;;;59.03;23.58;;;11.50;99.90;;;;;;5154613;27;20039;-62
2022/10/30 05:45:30;;;;;;;48.50;22.52;;;11.90;99.90;;;;;;5154289;27;20050;-63
2022/10/30 05:47:59;;;;;;;;;;;12.00;99.90;;;;;;5154711;27;20415;-63
2022/10/30 05:50:26;;;;;;;48.70;22.98;;;11.80;99.90;;;;;;5154186;27;19923;-64
2022/10/30 05:53:00;;;;;;;43.83;20.38;;;11.90;99.90;;;;;;5153794;27;20054;-63
2022/10/30 05:55:26;;;;;;;40.55;19.83;;;12.00;99.90;;;;;;5154123;27;20482;-63
2022/10/30 05:58:00;;;;;;;42.38;20.38;;;11.60;99.90;;;;;;5154381;27;20133;-63
2022/10/30 06:00:28;;;;;;;45.22;20.52;;;11.50;99.90;;;;;;5154120;27;20051;-63
2022/10/30 06:03:01;;;;;;;44.50;20.25;;;11.80;99.90;;;;;;5154075;27;20038;-62
2022/10/30 06:05:28;;;;;;;46.40;20.17;;;11.90;99.90;;;;;;5154612;27;20050;-63
2022/10/30 06:07:55;;;;;;;57.45;20.90;;;11.70;99.90;;;;;;5157812;27;20061;-62
2022/10/30 06:10:22;;;;;;;47.58;21.83;;;11.60;99.90;;;;;;5157998;27;20163;-63
2022/10/30 06:12:57;;;;;;;49.00;21.63;;;11.60;99.90;;;;;;5157845;27;20042;-63
2022/10/30 06:15:23;;;;;;;51.72;22.40;;;12.00;99.90;;;;;;5157863;27;20074;-63
2022/10/30 06:17:49;;;;;;;52.20;22.30;;;11.70;99.90;;;;;;5157879;27;20541;-63
2022/10/30 06:20:16;;;;;;;54.72;24.02;;;11.80;99.90;;;;;;5157538;27;20039;-63
2022/10/30 06:22:53;;;;;;;50.92;24.20;;;11.60;99.90;;;;;;5139463;27;20490;-63
2022/10/30 06:25:19;;;;;;;51.70;24.20;;;11.70;99.90;;;;;;5157670;27;20103;-62
2022/10/30 06:27:44;;;;;;;49.60;23.92;;;11.70;99.90;;;;;;5157743;27;20046;-63
2022/10/30 06:30:10;;;;;;;49.40;23.33;;;11.60;99.90;;;;;;5157619;27;20065;-63
2022/10/30 06:32:36;;;;;;;53.05;23.33;;;12.10;99.90;;;;;;5157522;27;20046;-63
2022/10/30 06:35:02;;;;;;;48.15;22.73;;;11.80;99.90;;;;;;5157030;27;20055;-63
2022/10/30 06:37:29;;;;;;;49.85;22.52;;;11.30;99.90;;;;;;5157499;27;20050;-62
2022/10/30 06:39:54;;;;;;;44.47;20.98;;;11.30;99.90;;;;;;5157437;27;20043;-62
2022/10/30 06:42:20;;;;;;;61.40;25.13;;;11.40;99.90;;;;;;5157405;27;20510;-63
2022/10/30 06:44:47;;;;;;;62.72;26.98;;;11.30;99.90;;;;;;5157311;27;20042;-64
2022/10/30 06:47:13;;;;;;;55.53;26.42;;;12.10;99.90;;;;;;5157320;27;20051;-63
2022/10/30 06:49:39;;;;;;;64.18;26.55;;;12.30;99.90;;;;;;5157023;27;20085;-63
2022/10/30 06:52:05;;;;;;;51.60;25.80;;;11.60;99.90;;;;;;5138763;27;20081;-63
2022/10/30 06:54:30;;;;;;;56.38;26.65;;;12.40;99.90;;;;;;5157188;27;20049;-63
2022/10/30 06:56:56;;;;;;;59.55;27.58;;;11.70;99.90;;;;;;5157126;27;20046;-63
2022/10/30 06:59:22;;;;;;;60.20;26.77;;;12.80;99.90;;;;;;5157072;27;20046;-63
2022/10/30 07:01:47;;;;;;;59.95;26.73;;;12.40;99.90;;;;;;5157077;27;20050;-62
2022/10/30 07:04:13;;;;;;;64.35;27.67;;;11.90;99.90;;;;;;5156739;27;20039;-63
2022/10/30 07:06:39;;;;;;;57.63;26.92;;;12.10;99.90;;;;;;5156985;27;20049;-63
2022/10/30 07:09:04;;;;;;;64.93;26.85;;;12.00;99.90;;;;;;5156852;27;20083;-63
2022/10/30 07:11:30;;;;;;;61.53;27.67;;;11.80;99.90;;;;;;5156855;27;20146;-62
2022/10/30 07:13:55;;;;;;;61.30;27.20;;;12.00;99.90;;;;;;5153750;27;20386;-63
2022/10/30 07:16:21;;;;;;;60.00;27.38;;;12.40;99.90;;;;;;5152929;27;20088;-63
2022/10/30 07:18:47;;;;;;;58.22;27.83;;;11.70;99.90;;;;;;5155876;27;20050;-64
2022/10/30 07:21:12;;;;;;;63.80;27.17;;;12.20;99.90;;;;;;5156080;27;20057;-62
2022/10/30 07:23:38;;;;;;;56.88;26.92;;;12.20;99.90;;;;;;5155937;27;20038;-62
2022/10/30 07:26:04;;;;;;;64.75;27.00;;;12.40;99.90;;;;;;5155852;27;20046;-63
2022/10/30 07:28:30;;;;;;;59.70;27.45;;;12.10;99.90;;;;;;5155957;27;20082;-62
2022/10/30 07:30:57;;;;;;;;;;;12.40;99.90;;;;;;5156078;27;20082;-63
2022/10/30 07:33:22;;;;;;;57.90;28.02;;;12.40;99.90;;;;;;5153334;27;19919;-70
2022/10/30 07:35:48;;;;;;;62.20;27.27;;;12.60;99.90;;;;;;5148569;27;20516;-64
2022/10/30 07:38:14;;;;;;;60.72;27.38;;;12.40;99.90;;;;;;5155568;27;20544;-63
2022/10/30 07:40:39;;;;;;;61.10;27.08;;;12.10;99.90;;;;;;5155993;27;20041;-63
2022/10/30 07:43:05;;;;;;;65.15;27.77;;;12.20;99.90;;;;;;5155755;27;20042;-62
2022/10/30 07:45:31;;;;;;;63.63;26.58;;;12.70;99.90;;;;;;5155742;27;20076;-62
2022/10/30 07:47:57;;;;;;;;;;;12.50;99.90;;;;;;5153937;27;20058;-62
2022/10/30 07:50:23;;;;;;;59.58;28.23;;;12.70;99.90;;;;;;5153294;27;20419;-63
2022/10/30 07:52:49;;;;;;;;;;;12.30;99.90;;;;;;5156232;27;20070;-64
2022/10/30 07:55:14;;;;;;;57.47;27.23;;;13.20;99.90;;;;;;5155673;27;20457;-62
2022/10/30 07:57:41;;;;;;;61.35;27.80;;;12.70;99.90;;;;;;5137077;27;20134;-62
2022/10/30 08:00:10;;;;;;;58.88;27.58;;;12.90;99.90;;;;;;5155480;27;20168;-63
2022/10/30 08:02:36;;;;;;;61.28;28.05;;;12.70;99.90;;;;;;5155300;27;20054;-62
2022/10/30 08:05:02;;;;;;;69.20;29.02;;;13.30;99.90;;;;;;5155137;27;20058;-62
2022/10/30 08:07:31;;;;;;;58.30;28.45;;;13.00;99.90;;;;;;5155284;27;20553;-63
2022/10/30 08:09:57;;;;;;;60.10;26.67;;;13.00;99.90;;;;;;5155196;27;20372;-62
2022/10/30 08:12:23;;;;;;;53.80;27.83;;;13.30;99.90;;;;;;5155363;27;20088;-65
2022/10/30 08:14:49;;;;;;;;;;;13.10;99.90;;;;;;5155660;27;20043;-62
2022/10/30 08:17:14;;;;;;;56.85;27.52;;;13.70;99.90;;;;;;5155032;27;19975;-62
2022/10/30 08:19:40;;;;;;;56.33;27.75;;;13.40;99.90;;;;;;5154689;27;20074;-64
2022/10/30 08:22:06;;;;;;;53.20;27.48;;;13.10;99.90;;;;;;5155150;27;20042;-63
2022/10/30 08:24:31;;;;;;;61.45;27.30;;;13.20;99.90;;;;;;5155077;27;20046;-65
2022/10/30 08:26:57;;;;;;;55.25;26.80;;;13.80;99.90;;;;;;5155177;27;20054;-65
2022/10/30 08:29:23;;;;;;;54.83;27.52;;;13.60;99.90;;;;;;5154339;27;20486;-63
2022/10/30 08:31:49;;;;;;;60.42;27.77;;;14.00;99.90;;;;;;5154659;27;20091;-64
2022/10/30 08:34:15;;;;;;;55.90;27.20;;;14.10;99.90;;;;;;5151948;27;20045;-63
2022/10/30 08:36:42;;;;;;;49.60;25.13;;;13.40;99.90;;;;;;5153806;27;20055;-62
2022/10/30 08:39:07;;;;;;;57.83;26.33;;;14.10;99.90;;;;;;5153757;27;20050;-63
2022/10/30 08:41:33;;;;;;;58.05;27.05;;;13.70;99.90;;;;;;5135580;27;20394;-67
2022/10/30 08:43:59;;;;;;;56.35;27.65;;;14.20;99.90;;;;;;5154217;27;20066;-64
2022/10/30 08:46:24;;;;;;;58.70;25.63;;;14.20;99.90;;;;;;5153455;27;20047;-63
2022/10/30 08:48:50;;;;;;;56.53;28.27;;;14.70;99.90;;;;;;5146874;27;20051;-63
2022/10/30 08:51:16;;;;;;;50.92;25.65;;;14.00;99.90;;;;;;5154736;27;20096;-62
2022/10/30 08:53:41;;;;;;;52.60;25.73;;;14.10;99.90;;;;;;5154875;27;20170;-62
2022/10/30 08:56:07;;;;;;;47.15;25.17;;;14.80;99.90;;;;;;5154661;27;20133;-62
2022/10/30 08:58:33;;;;;;;51.78;24.63;;;14.50;99.90;;;;;;5154562;27;20046;-62
2022/10/30 09:00:58;;;;;;;47.42;25.00;;;14.60;99.90;;;;;;5152373;27;20042;-62
2022/10/30 09:03:24;;;;;;;;;;;15.10;99.90;;;;;;5154592;27;20039;-63
2022/10/30 09:05:49;;;;;;;45.05;24.45;;;14.90;99.90;;;;;;5154585;27;19972;-63
2022/10/30 09:08:15;;;;;;;52.58;23.85;;;15.10;99.90;;;;;;5145704;27;20100;-63
2022/10/30 09:10:41;;;;;;;41.63;22.90;;;15.00;99.90;;;;;;5133058;27;20042;-62
2022/10/30 09:13:08;;;;;;;;;;;15.00;99.90;;;;;;5133237;27;20081;-63
2022/10/30 09:15:34;;;;;;;42.42;22.27;;;15.50;99.90;;;;;;5133025;27;19930;-63
2022/10/30 09:18:02;;;;;;;42.83;22.27;;;15.60;99.90;;;;;;5133902;27;20049;-63
2022/10/30 09:20:28;;;;;;;40.40;23.83;;;15.70;99.90;;;;;;5132850;27;20051;-62
2022/10/30 09:22:53;;;;;;;46.88;23.25;;;15.50;99.90;;;;;;5154603;27;20070;-63
2022/10/30 09:25:20;;;;;;;39.88;22.08;;;15.50;99.90;;;;;;5147744;27;20482;-65
2022/10/30 09:27:46;;;;;;;35.20;20.17;;;15.90;99.90;;;;;;5151490;27;20118;-63
2022/10/30 09:30:12;;;;;;;;;;;16.10;99.90;;;;;;5153182;27;20034;-64
2022/10/30 09:32:38;;;;;;;41.47;21.42;;;15.80;99.90;;;;;;5154025;27;20294;-63
2022/10/30 09:35:04;;;;;;;;;;;15.90;99.90;;;;;;5154271;27;20054;-63
2022/10/30 09:37:33;;;;;;;39.05;21.23;;;16.10;99.90;;;;;;5154318;27;19919;-64
2022/10/30 09:39:59;;;;;;;49.08;20.48;;;15.80;99.90;;;;;;5154306;27;20100;-64
2022/10/30 09:42:44;;;;;;;41.30;20.75;;;16.00;99.90;;;;;;5158793;27;20110;-63
2022/10/30 09:45:16;;;;;;;41.47;21.63;;;16.10;99.90;;;;;;5158643;27;20047;-63
2022/10/30 09:48:07;;;;;;;39.83;20.67;;;16.00;99.90;;;;;;5158489;27;20129;-63
2022/10/30 09:50:38;;;;;;;44.10;20.70;;;16.50;99.90;;;;;;5158271;27;20099;-63
2022/10/30 09:53:42;;;;;;;37.95;20.10;;;16.20;99.90;;;;;;5158211;27;20039;-63
2022/10/30 09:56:34;;;;;;;45.53;19.35;;;16.30;99.90;;;;;;5105186;27;20106;-63
2022/10/30 09:59:07;;;;;;;40.13;19.55;;;16.50;99.90;;;;;;5157048;27;20437;-63
2022/10/30 10:02:01;;;;;;;37.63;19.30;;;16.40;99.90;;;;;;5158143;27;20457;-63
2022/10/30 10:04:43;;;;;;;37.95;18.30;;;16.70;99.90;;;;;;5158222;27;20483;-63
2022/10/30 10:07:26;;;;;;;38.70;18.88;;;17.00;99.90;;;;;;5158106;27;20054;-63
2022/10/30 10:09:58;;;;;;;44.00;18.48;;;17.10;99.90;;;;;;5157913;27;20091;-63
2022/10/30 10:12:42;;;;;;;35.05;17.42;;;16.90;99.90;;;;;;5157645;27;20445;-64
2022/10/30 10:15:19;;;;;;;28.48;16.48;;;17.40;99.90;;;;;;5157638;27;20514;-63
2022/10/30 10:17:45;;;;;;;33.78;16.98;;;17.40;99.90;;;;;;5157770;27;20042;-64
2022/10/30 10:20:25;;;;;;;43.25;17.08;;;17.10;99.90;;;;;;5157620;27;20042;-63
2022/10/30 10:22:51;;;;;;;30.27;15.85;;;17.30;99.90;;;;;;5157687;27;20042;-63
2022/10/30 10:25:18;;;;;;;;;;;17.30;99.90;;;;;;5158215;27;20095;-63
2022/10/30 10:28:06;;;;;;;30.38;16.17;;;17.50;99.90;;;;;;5139081;27;19978;-63
2022/10/30 10:30:59;;;;;;;29.35;14.77;;;17.70;99.90;;;;;;5157452;27;20054;-63
2022/10/30 10:33:49;;;;;;;29.02;15.20;;;17.90;99.90;;;;;;5156769;27;20043;-64
2022/10/30 10:36:38;;;;;;;35.65;16.17;;;17.80;99.90;;;;;;5156042;27;20054;-64
2022/10/30 10:39:27;;;;;;;30.77;15.95;;;17.90;99.90;;;;;;5138828;27;20367;-64
2022/10/30 10:41:59;;;;;;;40.63;15.73;;;18.10;99.90;;;;;;5157191;27;20103;-63
2022/10/30 10:44:33;;;;;;;30.75;14.30;;;18.00;99.90;;;;;;5157168;27;20039;-63
2022/10/30 10:47:29;;;;;;;29.50;14.40;;;18.30;99.90;;;;;;5157158;27;20486;-63
2022/10/30 10:50:22;;;;;;;31.98;15.65;;;18.10;99.90;;;;;;5157050;27;20054;-63
2022/10/30 10:53:02;;;;;;;34.25;14.90;;;18.30;99.90;;;;;;5145295;27;20062;-63
2022/10/30 10:55:32;;;;;;;32.10;13.52;;;18.70;99.90;;;;;;5157295;27;20129;-63
2022/10/30 10:58:22;;;;;;;33.72;13.60;;;18.40;99.90;;;;;;5156963;27;20054;-63
2022/10/30 11:00:49;;;;;;;31.77;14.52;;;18.50;99.90;;;;;;5156573;27;20055;-63
2022/10/30 11:03:22;;;;;;;33.85;14.50;;;18.50;99.90;;;;;;5157077;27;20042;-63
2022/10/30 11:06:09;;;;;;;32.90;13.77;;;18.50;99.90;;;;;;5156871;27;20054;-63
2022/10/30 11:08:36;;;;;;;24.35;12.38;;;18.80;99.90;;;;;;5156793;27;20474;-64
2022/10/30 11:11:06;;;;;;;26.27;13.55;;;18.50;99.90;;;;;;5156423;27;20574;-64
2022/10/30 11:13:40;;;;;;;29.40;13.25;;;18.70;99.90;;;;;;5156726;27;20145;-63
2022/10/30 11:16:24;;;;;;;29.33;14.45;;;18.80;99.90;;;;;;5156655;27;20042;-64
2022/10/30 11:18:57;;;;;;;32.65;14.73;;;18.50;99.90;;;;;;5156597;27;20069;-63
2022/10/30 11:21:25;;;;;;;27.27;13.63;;;18.80;99.90;;;;;;5156677;27;20415;-66
2022/10/30 11:23:54;;;;;;;31.45;13.82;;;18.80;99.90;;;;;;5156676;27;20521;-63
2022/10/30 11:26:24;;;;;;;29.92;14.32;;;19.00;99.90;;;;;;5156156;27;20462;-63
2022/10/30 11:28:58;;;;;;;28.83;12.70;;;19.10;99.90;;;;;;5156594;27;20378;-64
2022/10/30 11:31:36;;;;;;;29.88;13.98;;;18.90;99.90;;;;;;5156355;27;20409;-65
2022/10/30 11:34:17;;;;;;;31.23;14.45;;;19.00;99.90;;;;;;5156392;27;20053;-64
2022/10/30 11:36:53;;;;;;;24.90;12.70;;;18.90;99.90;;;;;;5156383;27;20055;-63
2022/10/30 11:39:26;;;;;;;;;;;18.80;99.90;;;;;;5156344;27;20531;-64
2022/10/30 11:42:14;;;;;;;31.15;12.05;;;18.90;99.90;;;;;;5137657;27;19927;-64
2022/10/30 11:44:50;;;;;;;32.13;12.27;;;19.20;99.90;;;;;;5156368;27;20399;-64
2022/10/30 11:47:20;;;;;;;25.13;12.32;;;18.90;99.90;;;;;;5155749;27;20478;-63
2022/10/30 11:49:55;;;;;;;30.10;12.93;;;19.00;99.90;;;;;;5155939;27;20043;-64
2022/10/30 11:52:23;;;;;;;25.63;13.30;;;19.00;99.90;;;;;;5155539;27;20491;-63
2022/10/30 11:54:56;;;;;;;22.65;12.32;;;19.10;99.90;;;;;;5155725;27;20095;-63
2022/10/30 11:57:36;;;;;;;25.92;12.05;;;19.20;99.90;;;;;;5156029;27;20436;-64
2022/10/30 12:00:06;;;;;;;25.90;11.25;;;19.20;99.90;;;;;;5155792;27;20047;-64
2022/10/30 12:02:44;;;;;;;26.42;11.93;;;19.00;99.90;;;;;;5155236;27;20506;-64
2022/10/30 12:05:28;;;;;;;26.88;12.48;;;19.10;99.90;;;;;;5155547;27;20050;-65
2022/10/30 12:08:15;;;;;;;20.92;10.90;;;19.20;99.90;;;;;;5155265;27;20078;-64
2022/10/30 12:10:58;;;;;;;29.55;11.85;;;19.10;99.90;;;;;;5155629;27;20050;-64
2022/10/30 12:13:25;;;;;;;24.27;11.13;;;19.50;99.90;;;;;;5155697;27;20034;-63
2022/10/30 12:16:05;;;;;;;23.92;11.48;;;19.50;99.90;;;;;;5155503;27;20047;-64
2022/10/30 12:18:31;;;;;;;27.42;11.43;;;19.10;99.90;;;;;;5155676;27;20550;-64
2022/10/30 12:20:58;;;;;;;21.23;11.20;;;19.20;99.90;;;;;;5155470;27;20047;-63
2022/10/30 12:23:26;;;;;;;27.70;11.50;;;19.40;99.90;;;;;;5155347;27;20141;-63
2022/10/30 12:25:54;;;;;;;25.88;10.95;;;19.70;99.90;;;;;;5155247;27;20555;-63
2022/10/30 12:28:30;;;;;;;25.42;10.82;;;19.70;99.90;;;;;;5155235;27;20042;-64
2022/10/30 12:31:18;;;;;;;29.52;11.27;;;19.80;99.90;;;;;;5155503;27;20079;-64
2022/10/30 12:34:09;;;;;;;22.20;10.68;;;20.30;99.90;;;;;;5155099;27;20134;-64
2022/10/30 12:36:45;;;;;;;25.95;9.98;;;20.60;99.90;;;;;;5155169;27;20502;-64
2022/10/30 12:39:14;;;;;;;;;;;20.70;99.90;;;;;;5155651;27;20050;-63
2022/10/30 12:41:45;;;;;;;28.25;8.82;;;20.70;99.90;;;;;;5154926;27;20809;-64
2022/10/30 12:44:20;;;;;;;22.17;9.65;;;20.90;99.90;;;;;;5155164;27;20045;-64
2022/10/30 12:47:00;;;;;;;25.75;10.02;;;20.80;99.90;;;;;;5154941;27;20046;-64